sensor_id;sensor_type;location;lat;lon;timestamp;P1;durP1;ratioP1;P2;durP2;ratioP2
20810;SDS011;10566;52.928;10.522;2022-11-27T00:01:39;40.87;;;17.23;;
20810;SDS011;10566;52.928;10.522;2022-11-27T00:04:06;35.50;;;17.13;;
20810;SDS011;10566;52.928;10.522;2022-11-27T00:06:33;36.60;;;17.80;;
20810;SDS011;10566;52.928;10.522;2022-11-27T00:09:00;36.93;;;17.43;;
20810;SDS011;10566;52.928;10.522;2022-11-27T00:11:27;44.77;;;16.47;;
20810;SDS011;10566;52.928;10.522;2022-11-27T00:13:53;37.13;;;16.27;;
20810;SDS011;10566;52.928;10.522;2022-11-27T00:16:20;44.30;;;15.97;;
20810;SDS011;10566;52.928;10.522;2022-11-27T00:18:47;49.27;;;17.27;;
20810;SDS011;10566;52.928;10.522;2022-11-27T00:21:15;35.93;;;15.97;;
20810;SDS011;10566;52.928;10.522;2022-11-27T00:23:41;33.27;;;15.37;;
20810;SDS011;10566;52.928;10.522;2022-11-27T00:26:08;37.77;;;15.23;;
20810;SDS011;10566;52.928;10.522;2022-11-27T00:28:34;44.73;;;15.80;;
20810;SDS011;10566;52.928;10.522;2022-11-27T00:31:01;39.83;;;14.37;;
20810;SDS011;10566;52.928;10.522;2022-11-27T00:33:27;35.37;;;15.53;;
20810;SDS011;10566;52.928;10.522;2022-11-27T00:35:53;36.50;;;15.13;;
20810;SDS011;10566;52.928;10.522;2022-11-27T00:38:20;35.50;;;14.97;;
20810;SDS011;10566;52.928;10.522;2022-11-27T00:40:46;36.67;;;15.13;;
20810;SDS011;10566;52.928;10.522;2022-11-27T00:43:12;37.20;;;15.80;;
20810;SDS011;10566;52.928;10.522;2022-11-27T00:45:38;38.30;;;15.40;;
20810;SDS011;10566;52.928;10.522;2022-11-27T00:48:04;36.40;;;15.97;;
20810;SDS011;10566;52.928;10.522;2022-11-27T00:50:30;51.50;;;20.47;;
20810;SDS011;10566;52.928;10.522;2022-11-27T00:52:57;48.23;;;20.60;;
20810;SDS011;10566;52.928;10.522;2022-11-27T00:55:23;45.83;;;18.87;;
20810;SDS011;10566;52.928;10.522;2022-11-27T00:57:49;47.50;;;17.80;;
20810;SDS011;10566;52.928;10.522;2022-11-27T01:00:15;38.87;;;16.77;;
20810;SDS011;10566;52.928;10.522;2022-11-27T01:02:41;42.47;;;16.37;;
20810;SDS011;10566;52.928;10.522;2022-11-27T01:05:07;41.83;;;16.37;;
20810;SDS011;10566;52.928;10.522;2022-11-27T01:07:33;44.57;;;16.43;;
20810;SDS011;10566;52.928;10.522;2022-11-27T01:09:59;39.90;;;16.17;;
20810;SDS011;10566;52.928;10.522;2022-11-27T01:12:25;42.93;;;16.50;;
20810;SDS011;10566;52.928;10.522;2022-11-27T01:14:51;37.87;;;16.07;;
20810;SDS011;10566;52.928;10.522;2022-11-27T01:17:17;39.77;;;16.23;;
20810;SDS011;10566;52.928;10.522;2022-11-27T01:19:43;44.00;;;16.20;;
20810;SDS011;10566;52.928;10.522;2022-11-27T01:22:09;41.10;;;15.83;;
20810;SDS011;10566;52.928;10.522;2022-11-27T01:24:35;36.80;;;14.90;;
20810;SDS011;10566;52.928;10.522;2022-11-27T01:27:01;41.73;;;15.57;;
20810;SDS011;10566;52.928;10.522;2022-11-27T01:29:28;39.43;;;17.00;;
20810;SDS011;10566;52.928;10.522;2022-11-27T01:31:54;39.07;;;16.27;;
20810;SDS011;10566;52.928;10.522;2022-11-27T01:34:20;35.40;;;15.63;;
20810;SDS011;10566;52.928;10.522;2022-11-27T01:36:46;43.60;;;16.23;;
20810;SDS011;10566;52.928;10.522;2022-11-27T01:39:16;44.23;;;16.43;;
20810;SDS011;10566;52.928;10.522;2022-11-27T01:41:42;45.53;;;16.97;;
20810;SDS011;10566;52.928;10.522;2022-11-27T01:47:25;44.60;;;18.60;;
20810;SDS011;10566;52.928;10.522;2022-11-27T01:49:48;42.40;;;18.77;;
20810;SDS011;10566;52.928;10.522;2022-11-27T01:52:23;49.07;;;18.93;;
20810;SDS011;10566;52.928;10.522;2022-11-27T01:54:55;45.60;;;18.17;;
20810;SDS011;10566;52.928;10.522;2022-11-27T01:57:24;44.13;;;17.47;;
20810;SDS011;10566;52.928;10.522;2022-11-27T01:59:51;45.77;;;18.23;;
20810;SDS011;10566;52.928;10.522;2022-11-27T02:02:17;52.67;;;19.73;;
20810;SDS011;10566;52.928;10.522;2022-11-27T02:04:43;45.93;;;18.33;;
20810;SDS011;10566;52.928;10.522;2022-11-27T02:07:10;47.00;;;19.17;;
20810;SDS011;10566;52.928;10.522;2022-11-27T02:09:36;46.60;;;18.87;;
20810;SDS011;10566;52.928;10.522;2022-11-27T02:14:48;56.93;;;18.53;;
20810;SDS011;10566;52.928;10.522;2022-11-27T02:19:57;54.97;;;19.97;;
20810;SDS011;10566;52.928;10.522;2022-11-27T02:22:50;51.70;;;19.17;;
20810;SDS011;10566;52.928;10.522;2022-11-27T02:27:56;57.83;;;19.77;;
20810;SDS011;10566;52.928;10.522;2022-11-27T02:30:28;52.63;;;20.60;;
20810;SDS011;10566;52.928;10.522;2022-11-27T02:32:57;58.13;;;20.50;;
20810;SDS011;10566;52.928;10.522;2022-11-27T02:37:55;52.33;;;20.07;;
20810;SDS011;10566;52.928;10.522;2022-11-27T02:40:29;51.13;;;19.97;;
20810;SDS011;10566;52.928;10.522;2022-11-27T02:43:13;51.87;;;19.67;;
20810;SDS011;10566;52.928;10.522;2022-11-27T02:45:44;47.20;;;20.70;;
20810;SDS011;10566;52.928;10.522;2022-11-27T02:48:11;48.90;;;20.43;;
20810;SDS011;10566;52.928;10.522;2022-11-27T02:50:38;48.30;;;18.70;;
20810;SDS011;10566;52.928;10.522;2022-11-27T02:53:07;59.83;;;19.43;;
20810;SDS011;10566;52.928;10.522;2022-11-27T02:55:35;50.10;;;19.07;;
20810;SDS011;10566;52.928;10.522;2022-11-27T02:58:04;47.10;;;18.80;;
20810;SDS011;10566;52.928;10.522;2022-11-27T03:00:33;44.03;;;19.20;;
20810;SDS011;10566;52.928;10.522;2022-11-27T03:03:00;50.00;;;19.60;;
20810;SDS011;10566;52.928;10.522;2022-11-27T03:05:29;53.67;;;18.77;;
20810;SDS011;10566;52.928;10.522;2022-11-27T03:10:30;57.30;;;19.63;;
20810;SDS011;10566;52.928;10.522;2022-11-27T03:12:57;54.23;;;19.63;;
20810;SDS011;10566;52.928;10.522;2022-11-27T03:15:24;45.60;;;18.40;;
20810;SDS011;10566;52.928;10.522;2022-11-27T03:17:58;52.00;;;18.80;;
20810;SDS011;10566;52.928;10.522;2022-11-27T03:20:29;46.07;;;18.97;;
20810;SDS011;10566;52.928;10.522;2022-11-27T03:22:56;51.53;;;18.00;;
20810;SDS011;10566;52.928;10.522;2022-11-27T03:25:22;44.87;;;18.20;;
20810;SDS011;10566;52.928;10.522;2022-11-27T03:27:53;46.13;;;18.17;;
20810;SDS011;10566;52.928;10.522;2022-11-27T03:30:20;49.03;;;19.10;;
20810;SDS011;10566;52.928;10.522;2022-11-27T03:32:46;45.37;;;17.80;;
20810;SDS011;10566;52.928;10.522;2022-11-27T03:35:13;44.30;;;18.03;;
20810;SDS011;10566;52.928;10.522;2022-11-27T03:37:40;44.17;;;17.97;;
20810;SDS011;10566;52.928;10.522;2022-11-27T03:40:06;42.60;;;17.67;;
20810;SDS011;10566;52.928;10.522;2022-11-27T03:45:16;42.50;;;17.83;;
20810;SDS011;10566;52.928;10.522;2022-11-27T03:58:35;49.50;;;17.43;;
20810;SDS011;10566;52.928;10.522;2022-11-27T04:01:02;44.70;;;17.73;;
20810;SDS011;10566;52.928;10.522;2022-11-27T04:03:30;46.77;;;17.67;;
20810;SDS011;10566;52.928;10.522;2022-11-27T04:05:56;45.77;;;17.63;;
20810;SDS011;10566;52.928;10.522;2022-11-27T04:08:22;37.47;;;17.20;;
20810;SDS011;10566;52.928;10.522;2022-11-27T04:10:48;45.60;;;18.00;;
20810;SDS011;10566;52.928;10.522;2022-11-27T04:13:14;41.27;;;16.37;;
20810;SDS011;10566;52.928;10.522;2022-11-27T04:15:41;40.03;;;15.97;;
20810;SDS011;10566;52.928;10.522;2022-11-27T04:18:07;37.23;;;15.57;;
20810;SDS011;10566;52.928;10.522;2022-11-27T04:20:33;38.77;;;17.17;;
20810;SDS011;10566;52.928;10.522;2022-11-27T04:22:59;34.70;;;15.27;;
20810;SDS011;10566;52.928;10.522;2022-11-27T04:25:25;42.23;;;14.90;;
20810;SDS011;10566;52.928;10.522;2022-11-27T04:27:51;36.87;;;14.83;;
20810;SDS011;10566;52.928;10.522;2022-11-27T04:30:17;36.73;;;14.53;;
20810;SDS011;10566;52.928;10.522;2022-11-27T04:32:43;38.43;;;15.57;;
20810;SDS011;10566;52.928;10.522;2022-11-27T04:35:10;41.73;;;16.87;;
20810;SDS011;10566;52.928;10.522;2022-11-27T04:37:36;37.40;;;15.67;;
20810;SDS011;10566;52.928;10.522;2022-11-27T04:40:02;46.43;;;16.17;;
20810;SDS011;10566;52.928;10.522;2022-11-27T04:42:28;40.37;;;15.20;;
20810;SDS011;10566;52.928;10.522;2022-11-27T04:44:54;31.00;;;14.23;;
20810;SDS011;10566;52.928;10.522;2022-11-27T04:47:20;34.13;;;14.80;;
20810;SDS011;10566;52.928;10.522;2022-11-27T04:49:46;33.90;;;14.43;;
20810;SDS011;10566;52.928;10.522;2022-11-27T04:52:12;43.37;;;15.93;;
20810;SDS011;10566;52.928;10.522;2022-11-27T04:54:39;38.77;;;15.47;;
20810;SDS011;10566;52.928;10.522;2022-11-27T04:57:05;46.43;;;16.97;;
20810;SDS011;10566;52.928;10.522;2022-11-27T04:59:31;68.60;;;16.70;;
20810;SDS011;10566;52.928;10.522;2022-11-27T05:01:57;66.10;;;18.63;;
20810;SDS011;10566;52.928;10.522;2022-11-27T05:04:23;85.10;;;17.03;;
20810;SDS011;10566;52.928;10.522;2022-11-27T05:06:49;95.27;;;16.27;;
20810;SDS011;10566;52.928;10.522;2022-11-27T05:09:16;67.90;;;17.57;;
20810;SDS011;10566;52.928;10.522;2022-11-27T05:11:42;47.10;;;14.70;;
20810;SDS011;10566;52.928;10.522;2022-11-27T05:14:08;43.10;;;15.67;;
20810;SDS011;10566;52.928;10.522;2022-11-27T05:16:51;39.83;;;15.60;;
20810;SDS011;10566;52.928;10.522;2022-11-27T05:19:18;36.53;;;14.87;;
20810;SDS011;10566;52.928;10.522;2022-11-27T05:21:45;35.73;;;14.40;;
20810;SDS011;10566;52.928;10.522;2022-11-27T05:24:11;39.33;;;14.63;;
20810;SDS011;10566;52.928;10.522;2022-11-27T05:26:38;40.37;;;15.70;;
20810;SDS011;10566;52.928;10.522;2022-11-27T05:29:04;36.20;;;14.50;;
20810;SDS011;10566;52.928;10.522;2022-11-27T05:31:31;34.77;;;14.20;;
20810;SDS011;10566;52.928;10.522;2022-11-27T05:33:57;34.20;;;14.40;;
20810;SDS011;10566;52.928;10.522;2022-11-27T05:36:23;41.00;;;15.20;;
20810;SDS011;10566;52.928;10.522;2022-11-27T05:38:49;41.03;;;15.47;;
20810;SDS011;10566;52.928;10.522;2022-11-27T05:41:15;43.63;;;15.40;;
20810;SDS011;10566;52.928;10.522;2022-11-27T05:43:41;41.50;;;15.53;;
20810;SDS011;10566;52.928;10.522;2022-11-27T05:46:08;42.90;;;15.63;;
20810;SDS011;10566;52.928;10.522;2022-11-27T05:48:35;44.37;;;16.97;;
20810;SDS011;10566;52.928;10.522;2022-11-27T05:51:01;43.60;;;16.30;;
20810;SDS011;10566;52.928;10.522;2022-11-27T05:53:27;43.90;;;16.27;;
20810;SDS011;10566;52.928;10.522;2022-11-27T05:55:54;48.93;;;17.37;;
20810;SDS011;10566;52.928;10.522;2022-11-27T05:58:20;45.07;;;17.20;;
20810;SDS011;10566;52.928;10.522;2022-11-27T06:00:46;49.33;;;17.73;;
20810;SDS011;10566;52.928;10.522;2022-11-27T06:03:12;46.60;;;16.60;;
20810;SDS011;10566;52.928;10.522;2022-11-27T06:05:38;52.27;;;16.63;;
20810;SDS011;10566;52.928;10.522;2022-11-27T06:08:04;44.50;;;17.03;;
20810;SDS011;10566;52.928;10.522;2022-11-27T06:10:30;53.03;;;17.57;;
20810;SDS011;10566;52.928;10.522;2022-11-27T06:12:56;51.30;;;18.43;;
20810;SDS011;10566;52.928;10.522;2022-11-27T06:15:22;52.00;;;18.43;;
20810;SDS011;10566;52.928;10.522;2022-11-27T06:17:48;44.77;;;17.43;;
20810;SDS011;10566;52.928;10.522;2022-11-27T06:20:14;49.00;;;17.53;;
20810;SDS011;10566;52.928;10.522;2022-11-27T06:22:40;51.70;;;17.17;;
20810;SDS011;10566;52.928;10.522;2022-11-27T06:25:06;50.97;;;16.53;;
20810;SDS011;10566;52.928;10.522;2022-11-27T06:27:33;53.03;;;17.77;;
20810;SDS011;10566;52.928;10.522;2022-11-27T06:29:59;43.97;;;17.17;;
20810;SDS011;10566;52.928;10.522;2022-11-27T06:32:25;42.63;;;16.23;;
20810;SDS011;10566;52.928;10.522;2022-11-27T06:34:51;56.03;;;17.17;;
20810;SDS011;10566;52.928;10.522;2022-11-27T06:37:17;41.47;;;17.33;;
20810;SDS011;10566;52.928;10.522;2022-11-27T06:39:43;49.17;;;17.43;;
20810;SDS011;10566;52.928;10.522;2022-11-27T06:42:09;46.70;;;15.70;;
20810;SDS011;10566;52.928;10.522;2022-11-27T06:44:36;49.17;;;16.73;;
20810;SDS011;10566;52.928;10.522;2022-11-27T06:47:02;41.33;;;15.93;;
20810;SDS011;10566;52.928;10.522;2022-11-27T06:49:28;38.97;;;15.63;;
20810;SDS011;10566;52.928;10.522;2022-11-27T06:51:54;41.73;;;16.20;;
20810;SDS011;10566;52.928;10.522;2022-11-27T06:54:20;46.90;;;15.63;;
20810;SDS011;10566;52.928;10.522;2022-11-27T06:56:47;38.27;;;15.93;;
20810;SDS011;10566;52.928;10.522;2022-11-27T06:59:13;39.10;;;16.07;;
20810;SDS011;10566;52.928;10.522;2022-11-27T07:01:40;40.20;;;16.30;;
20810;SDS011;10566;52.928;10.522;2022-11-27T07:04:08;36.33;;;15.47;;
20810;SDS011;10566;52.928;10.522;2022-11-27T07:06:35;41.43;;;15.80;;
20810;SDS011;10566;52.928;10.522;2022-11-27T07:09:01;46.80;;;16.53;;
20810;SDS011;10566;52.928;10.522;2022-11-27T07:11:27;43.10;;;17.00;;
20810;SDS011;10566;52.928;10.522;2022-11-27T07:13:55;34.87;;;15.57;;
20810;SDS011;10566;52.928;10.522;2022-11-27T07:16:21;37.00;;;14.90;;
20810;SDS011;10566;52.928;10.522;2022-11-27T07:18:48;40.90;;;16.40;;
20810;SDS011;10566;52.928;10.522;2022-11-27T07:21:14;41.50;;;15.90;;
20810;SDS011;10566;52.928;10.522;2022-11-27T07:23:40;45.20;;;18.77;;
20810;SDS011;10566;52.928;10.522;2022-11-27T07:26:08;39.83;;;17.23;;
20810;SDS011;10566;52.928;10.522;2022-11-27T07:28:34;38.63;;;18.40;;
20810;SDS011;10566;52.928;10.522;2022-11-27T07:31:00;38.67;;;18.37;;
20810;SDS011;10566;52.928;10.522;2022-11-27T07:33:26;43.43;;;18.27;;
20810;SDS011;10566;52.928;10.522;2022-11-27T07:35:59;52.47;;;22.33;;
20810;SDS011;10566;52.928;10.522;2022-11-27T07:38:25;50.97;;;22.33;;
20810;SDS011;10566;52.928;10.522;2022-11-27T07:40:51;46.07;;;22.17;;
20810;SDS011;10566;52.928;10.522;2022-11-27T07:43:17;67.20;;;34.50;;
20810;SDS011;10566;52.928;10.522;2022-11-27T07:45:43;66.27;;;33.20;;
20810;SDS011;10566;52.928;10.522;2022-11-27T07:48:09;93.17;;;47.80;;
20810;SDS011;10566;52.928;10.522;2022-11-27T07:50:37;85.67;;;45.77;;
20810;SDS011;10566;52.928;10.522;2022-11-27T07:53:04;51.00;;;25.67;;
20810;SDS011;10566;52.928;10.522;2022-11-27T07:55:30;51.00;;;25.50;;
20810;SDS011;10566;52.928;10.522;2022-11-27T07:57:56;58.00;;;30.33;;
20810;SDS011;10566;52.928;10.522;2022-11-27T08:00:22;42.27;;;18.67;;
20810;SDS011;10566;52.928;10.522;2022-11-27T08:02:48;54.47;;;23.43;;
20810;SDS011;10566;52.928;10.522;2022-11-27T08:05:14;84.10;;;41.07;;
20810;SDS011;10566;52.928;10.522;2022-11-27T08:07:40;59.80;;;28.30;;
20810;SDS011;10566;52.928;10.522;2022-11-27T08:10:06;71.93;;;32.83;;
20810;SDS011;10566;52.928;10.522;2022-11-27T08:12:32;104.30;;;50.70;;
20810;SDS011;10566;52.928;10.522;2022-11-27T08:14:58;59.73;;;31.47;;
20810;SDS011;10566;52.928;10.522;2022-11-27T08:17:24;40.00;;;20.70;;
20810;SDS011;10566;52.928;10.522;2022-11-27T08:19:50;46.27;;;21.10;;
20810;SDS011;10566;52.928;10.522;2022-11-27T08:22:16;50.00;;;27.97;;
20810;SDS011;10566;52.928;10.522;2022-11-27T08:24:43;37.07;;;17.67;;
20810;SDS011;10566;52.928;10.522;2022-11-27T08:27:10;41.43;;;21.07;;
20810;SDS011;10566;52.928;10.522;2022-11-27T08:29:36;36.63;;;18.67;;
20810;SDS011;10566;52.928;10.522;2022-11-27T08:32:03;33.67;;;16.93;;
20810;SDS011;10566;52.928;10.522;2022-11-27T08:34:29;31.97;;;16.93;;
20810;SDS011;10566;52.928;10.522;2022-11-27T08:36:55;30.47;;;16.93;;
20810;SDS011;10566;52.928;10.522;2022-11-27T08:39:21;28.30;;;15.90;;
20810;SDS011;10566;52.928;10.522;2022-11-27T08:41:50;37.63;;;18.07;;
20810;SDS011;10566;52.928;10.522;2022-11-27T08:44:16;40.27;;;19.67;;
20810;SDS011;10566;52.928;10.522;2022-11-27T08:46:42;24.77;;;15.40;;
20810;SDS011;10566;52.928;10.522;2022-11-27T08:49:08;24.67;;;13.57;;
20810;SDS011;10566;52.928;10.522;2022-11-27T08:51:34;22.40;;;12.83;;
20810;SDS011;10566;52.928;10.522;2022-11-27T08:54:01;23.57;;;11.93;;
20810;SDS011;10566;52.928;10.522;2022-11-27T08:56:27;22.57;;;11.50;;
20810;SDS011;10566;52.928;10.522;2022-11-27T08:58:53;17.33;;;10.50;;
20810;SDS011;10566;52.928;10.522;2022-11-27T09:01:20;19.80;;;11.20;;
20810;SDS011;10566;52.928;10.522;2022-11-27T09:03:46;19.60;;;11.23;;
20810;SDS011;10566;52.928;10.522;2022-11-27T09:06:14;19.97;;;10.63;;
20810;SDS011;10566;52.928;10.522;2022-11-27T09:08:41;22.13;;;11.30;;
20810;SDS011;10566;52.928;10.522;2022-11-27T09:11:07;19.57;;;10.83;;
20810;SDS011;10566;52.928;10.522;2022-11-27T09:13:34;21.17;;;10.73;;
20810;SDS011;10566;52.928;10.522;2022-11-27T09:16:01;23.50;;;10.57;;
20810;SDS011;10566;52.928;10.522;2022-11-27T09:18:28;22.80;;;10.93;;
20810;SDS011;10566;52.928;10.522;2022-11-27T09:20:57;24.67;;;13.57;;
20810;SDS011;10566;52.928;10.522;2022-11-27T09:23:24;18.03;;;9.80;;
20810;SDS011;10566;52.928;10.522;2022-11-27T09:25:50;21.73;;;11.83;;
20810;SDS011;10566;52.928;10.522;2022-11-27T09:28:16;20.03;;;10.37;;
20810;SDS011;10566;52.928;10.522;2022-11-27T09:30:42;19.47;;;9.90;;
20810;SDS011;10566;52.928;10.522;2022-11-27T09:33:08;20.13;;;10.43;;
20810;SDS011;10566;52.928;10.522;2022-11-27T09:35:36;21.67;;;10.87;;
20810;SDS011;10566;52.928;10.522;2022-11-27T09:38:02;19.50;;;9.37;;
20810;SDS011;10566;52.928;10.522;2022-11-27T09:40:28;19.57;;;9.60;;
20810;SDS011;10566;52.928;10.522;2022-11-27T09:43:01;19.73;;;10.33;;
20810;SDS011;10566;52.928;10.522;2022-11-27T09:45:33;16.20;;;8.80;;
20810;SDS011;10566;52.928;10.522;2022-11-27T09:48:00;18.10;;;9.13;;
20810;SDS011;10566;52.928;10.522;2022-11-27T09:50:31;21.50;;;9.23;;
20810;SDS011;10566;52.928;10.522;2022-11-27T09:55:37;19.40;;;9.27;;
20810;SDS011;10566;52.928;10.522;2022-11-27T09:58:12;17.17;;;8.57;;
20810;SDS011;10566;52.928;10.522;2022-11-27T10:00:42;15.57;;;8.17;;
20810;SDS011;10566;52.928;10.522;2022-11-27T10:03:12;16.97;;;8.63;;
20810;SDS011;10566;52.928;10.522;2022-11-27T10:05:45;16.73;;;8.83;;
20810;SDS011;10566;52.928;10.522;2022-11-27T10:13:09;17.60;;;8.43;;
20810;SDS011;10566;52.928;10.522;2022-11-27T10:20:31;18.93;;;8.20;;
20810;SDS011;10566;52.928;10.522;2022-11-27T10:23:04;13.17;;;6.60;;
20810;SDS011;10566;52.928;10.522;2022-11-27T10:25:39;13.87;;;6.40;;
20810;SDS011;10566;52.928;10.522;2022-11-27T10:30:36;15.23;;;6.60;;
20810;SDS011;10566;52.928;10.522;2022-11-27T10:33:06;16.40;;;6.70;;
20810;SDS011;10566;52.928;10.522;2022-11-27T10:35:37;16.60;;;7.53;;
20810;SDS011;10566;52.928;10.522;2022-11-27T10:38:10;15.87;;;7.77;;
20810;SDS011;10566;52.928;10.522;2022-11-27T10:40:39;18.03;;;8.17;;
20810;SDS011;10566;52.928;10.522;2022-11-27T10:43:08;20.23;;;9.13;;
20810;SDS011;10566;52.928;10.522;2022-11-27T10:48:01;18.07;;;8.20;;
20810;SDS011;10566;52.928;10.522;2022-11-27T10:50:27;15.90;;;7.93;;
20810;SDS011;10566;52.928;10.522;2022-11-27T10:52:58;14.77;;;7.60;;
20810;SDS011;10566;52.928;10.522;2022-11-27T10:55:49;15.77;;;7.00;;
20810;SDS011;10566;52.928;10.522;2022-11-27T11:01:09;17.53;;;7.17;;
20810;SDS011;10566;52.928;10.522;2022-11-27T11:03:36;15.93;;;6.80;;
20810;SDS011;10566;52.928;10.522;2022-11-27T11:06:24;17.13;;;8.00;;
20810;SDS011;10566;52.928;10.522;2022-11-27T11:08:58;16.17;;;6.90;;
20810;SDS011;10566;52.928;10.522;2022-11-27T11:11:26;12.57;;;6.40;;
20810;SDS011;10566;52.928;10.522;2022-11-27T11:13:52;18.97;;;8.00;;
20810;SDS011;10566;52.928;10.522;2022-11-27T11:16:26;13.57;;;6.00;;
20810;SDS011;10566;52.928;10.522;2022-11-27T11:18:56;14.97;;;6.70;;
20810;SDS011;10566;52.928;10.522;2022-11-27T11:24:00;23.40;;;13.30;;
20810;SDS011;10566;52.928;10.522;2022-11-27T11:26:28;47.77;;;30.27;;
20810;SDS011;10566;52.928;10.522;2022-11-27T11:28:56;18.33;;;9.87;;
20810;SDS011;10566;52.928;10.522;2022-11-27T11:31:30;34.07;;;21.53;;
20810;SDS011;10566;52.928;10.522;2022-11-27T11:33:58;18.60;;;9.17;;
20810;SDS011;10566;52.928;10.522;2022-11-27T11:36:25;21.40;;;9.93;;
20810;SDS011;10566;52.928;10.522;2022-11-27T11:38:51;19.80;;;10.43;;
20810;SDS011;10566;52.928;10.522;2022-11-27T11:41:18;19.47;;;10.13;;
20810;SDS011;10566;52.928;10.522;2022-11-27T11:43:58;16.10;;;9.37;;
20810;SDS011;10566;52.928;10.522;2022-11-27T11:46:26;23.50;;;11.73;;
20810;SDS011;10566;52.928;10.522;2022-11-27T11:49:03;19.80;;;8.67;;
20810;SDS011;10566;52.928;10.522;2022-11-27T11:51:45;16.63;;;7.97;;
20810;SDS011;10566;52.928;10.522;2022-11-27T11:54:17;18.13;;;8.83;;
20810;SDS011;10566;52.928;10.522;2022-11-27T11:56:47;15.20;;;7.80;;
20810;SDS011;10566;52.928;10.522;2022-11-27T12:09:30;15.83;;;7.70;;
20810;SDS011;10566;52.928;10.522;2022-11-27T12:12:03;17.00;;;8.00;;
20810;SDS011;10566;52.928;10.522;2022-11-27T12:20:16;16.43;;;8.10;;
20810;SDS011;10566;52.928;10.522;2022-11-27T12:22:48;13.53;;;7.70;;
20810;SDS011;10566;52.928;10.522;2022-11-27T12:28:01;14.97;;;7.57;;
20810;SDS011;10566;52.928;10.522;2022-11-27T12:30:31;14.63;;;7.50;;
20810;SDS011;10566;52.928;10.522;2022-11-27T12:33:08;16.70;;;7.47;;
20810;SDS011;10566;52.928;10.522;2022-11-27T12:35:43;16.40;;;8.17;;
20810;SDS011;10566;52.928;10.522;2022-11-27T12:38:23;16.67;;;7.73;;
20810;SDS011;10566;52.928;10.522;2022-11-27T12:43:37;16.40;;;8.70;;
20810;SDS011;10566;52.928;10.522;2022-11-27T12:46:12;17.77;;;8.60;;
20810;SDS011;10566;52.928;10.522;2022-11-27T12:48:41;13.67;;;7.70;;
20810;SDS011;10566;52.928;10.522;2022-11-27T12:51:10;14.93;;;8.77;;
20810;SDS011;10566;52.928;10.522;2022-11-27T12:54:20;15.07;;;8.70;;
20810;SDS011;10566;52.928;10.522;2022-11-27T12:56:27;16.17;;;9.33;;
20810;SDS011;10566;52.928;10.522;2022-11-27T12:59:03;18.27;;;9.40;;
20810;SDS011;10566;52.928;10.522;2022-11-27T13:01:35;18.37;;;8.40;;
20810;SDS011;10566;52.928;10.522;2022-11-27T13:06:43;19.37;;;9.60;;
20810;SDS011;10566;52.928;10.522;2022-11-27T13:09:18;16.87;;;8.73;;
20810;SDS011;10566;52.928;10.522;2022-11-27T13:11:47;16.30;;;8.17;;
20810;SDS011;10566;52.928;10.522;2022-11-27T13:14:20;16.80;;;9.07;;
20810;SDS011;10566;52.928;10.522;2022-11-27T13:16:49;16.80;;;8.93;;
20810;SDS011;10566;52.928;10.522;2022-11-27T13:22:03;17.27;;;9.97;;
20810;SDS011;10566;52.928;10.522;2022-11-27T13:24:31;15.30;;;9.07;;
20810;SDS011;10566;52.928;10.522;2022-11-27T13:27:05;17.03;;;10.00;;
20810;SDS011;10566;52.928;10.522;2022-11-27T13:29:52;15.67;;;9.80;;
20810;SDS011;10566;52.928;10.522;2022-11-27T13:32:21;16.80;;;9.57;;
20810;SDS011;10566;52.928;10.522;2022-11-27T13:34:47;19.60;;;10.77;;
20810;SDS011;10566;52.928;10.522;2022-11-27T13:37:25;17.80;;;9.70;;
20810;SDS011;10566;52.928;10.522;2022-11-27T13:40:15;23.23;;;13.30;;
20810;SDS011;10566;52.928;10.522;2022-11-27T13:42:41;20.13;;;10.47;;
20810;SDS011;10566;52.928;10.522;2022-11-27T13:45:07;20.40;;;9.53;;
20810;SDS011;10566;52.928;10.522;2022-11-27T13:47:40;18.57;;;10.47;;
20810;SDS011;10566;52.928;10.522;2022-11-27T13:50:11;18.27;;;11.40;;
20810;SDS011;10566;52.928;10.522;2022-11-27T13:52:37;21.77;;;12.33;;
20810;SDS011;10566;52.928;10.522;2022-11-27T13:55:21;22.13;;;11.87;;
20810;SDS011;10566;52.928;10.522;2022-11-27T13:57:51;23.90;;;11.90;;
20810;SDS011;10566;52.928;10.522;2022-11-27T14:00:17;26.50;;;15.03;;
20810;SDS011;10566;52.928;10.522;2022-11-27T14:02:54;21.43;;;12.47;;
20810;SDS011;10566;52.928;10.522;2022-11-27T14:05:32;22.67;;;11.60;;
20810;SDS011;10566;52.928;10.522;2022-11-27T14:07:58;21.00;;;12.37;;
20810;SDS011;10566;52.928;10.522;2022-11-27T14:10:25;21.57;;;12.67;;
20810;SDS011;10566;52.928;10.522;2022-11-27T14:12:59;21.97;;;11.83;;
20810;SDS011;10566;52.928;10.522;2022-11-27T14:15:26;19.83;;;11.43;;
20810;SDS011;10566;52.928;10.522;2022-11-27T14:17:53;19.90;;;11.30;;
20810;SDS011;10566;52.928;10.522;2022-11-27T14:20:29;19.47;;;10.77;;
20810;SDS011;10566;52.928;10.522;2022-11-27T14:22:56;18.93;;;10.70;;
20810;SDS011;10566;52.928;10.522;2022-11-27T14:27:52;19.17;;;11.07;;
20810;SDS011;10566;52.928;10.522;2022-11-27T14:32:50;21.90;;;12.73;;
20810;SDS011;10566;52.928;10.522;2022-11-27T14:35:23;24.60;;;13.77;;
20810;SDS011;10566;52.928;10.522;2022-11-27T14:37:50;26.73;;;13.40;;
20810;SDS011;10566;52.928;10.522;2022-11-27T14:40:26;21.27;;;12.70;;
20810;SDS011;10566;52.928;10.522;2022-11-27T14:42:52;22.23;;;12.80;;
20810;SDS011;10566;52.928;10.522;2022-11-27T14:45:19;22.43;;;12.23;;
20810;SDS011;10566;52.928;10.522;2022-11-27T14:47:46;23.80;;;12.53;;
20810;SDS011;10566;52.928;10.522;2022-11-27T14:50:13;20.03;;;11.70;;
20810;SDS011;10566;52.928;10.522;2022-11-27T14:52:43;21.43;;;11.93;;
20810;SDS011;10566;52.928;10.522;2022-11-27T14:55:13;22.20;;;12.73;;
20810;SDS011;10566;52.928;10.522;2022-11-27T14:57:40;20.73;;;11.93;;
20810;SDS011;10566;52.928;10.522;2022-11-27T15:00:19;22.07;;;12.00;;
20810;SDS011;10566;52.928;10.522;2022-11-27T15:02:48;22.37;;;11.87;;
20810;SDS011;10566;52.928;10.522;2022-11-27T15:05:18;22.70;;;12.13;;
20810;SDS011;10566;52.928;10.522;2022-11-27T15:07:45;24.43;;;14.23;;
20810;SDS011;10566;52.928;10.522;2022-11-27T15:10:27;31.30;;;18.57;;
20810;SDS011;10566;52.928;10.522;2022-11-27T15:12:53;38.07;;;21.77;;
20810;SDS011;10566;52.928;10.522;2022-11-27T15:15:21;53.67;;;29.97;;
20810;SDS011;10566;52.928;10.522;2022-11-27T15:17:49;49.17;;;27.17;;
20810;SDS011;10566;52.928;10.522;2022-11-27T15:23:00;33.43;;;17.77;;
20810;SDS011;10566;52.928;10.522;2022-11-27T15:25:34;26.60;;;15.70;;
20810;SDS011;10566;52.928;10.522;2022-11-27T15:28:00;29.70;;;15.30;;
20810;SDS011;10566;52.928;10.522;2022-11-27T15:30:27;28.70;;;14.70;;
20810;SDS011;10566;52.928;10.522;2022-11-27T15:32:52;28.73;;;15.97;;
20810;SDS011;10566;52.928;10.522;2022-11-27T15:35:27;36.50;;;17.47;;
20810;SDS011;10566;52.928;10.522;2022-11-27T15:37:54;33.30;;;18.13;;
20810;SDS011;10566;52.928;10.522;2022-11-27T15:40:22;31.07;;;17.37;;
20810;SDS011;10566;52.928;10.522;2022-11-27T15:42:48;31.13;;;16.37;;
20810;SDS011;10566;52.928;10.522;2022-11-27T15:45:14;26.63;;;16.13;;